createdAt,value
2022-08-28T00:00:42.956Z,1015.47
2022-08-28T00:01:51.075Z,1015.45
2022-08-28T00:02:47.566Z,1015.47
2022-08-28T00:03:45.661Z,1015.45
2022-08-28T00:04:45.877Z,1015.50
2022-08-28T00:05:44.378Z,1015.47
2022-08-28T00:06:48.543Z,1015.52
2022-08-28T00:07:47.810Z,1015.53
2022-08-28T00:08:45.223Z,1015.51
2022-08-28T00:09:45.534Z,1015.53
2022-08-28T00:10:45.840Z,1015.51
2022-08-28T00:11:47.655Z,1015.54
2022-08-28T00:12:46.412Z,1015.54
2022-08-28T00:13:47.620Z,1015.54
2022-08-28T00:14:46.982Z,1015.48
2022-08-28T00:15:47.334Z,1015.53
2022-08-28T00:16:50.665Z,1015.55
2022-08-28T00:17:47.946Z,1015.54
2022-08-28T00:18:50.172Z,1015.50
2022-08-28T00:19:48.559Z,1015.55
2022-08-28T00:20:48.874Z,1015.55
2022-08-28T00:21:52.226Z,1015.52
2022-08-28T00:22:49.510Z,1015.53
2022-08-28T00:23:52.998Z,1015.57
2022-08-28T00:24:50.163Z,1015.55
2022-08-28T00:25:53.800Z,1015.56
2022-08-28T00:26:53.796Z,1015.58
2022-08-28T00:27:50.956Z,1015.55
2022-08-28T00:28:51.462Z,1015.57
2022-08-28T00:29:53.444Z,1015.55
2022-08-28T00:30:51.979Z,1015.51
2022-08-28T00:31:53.872Z,1015.58
2022-08-28T00:32:52.783Z,1015.57
2022-08-28T00:33:52.927Z,1015.54
2022-08-28T00:34:55.113Z,1015.56
2022-08-28T00:35:53.495Z,1015.52
2022-08-28T00:36:56.681Z,1015.54
2022-08-28T00:37:54.078Z,1015.49
2022-08-28T00:38:55.467Z,1015.48
2022-08-28T00:39:56.658Z,1015.48
2022-08-28T00:40:56.042Z,1015.52
2022-08-28T00:41:57.802Z,1015.49
2022-08-28T00:42:56.351Z,1015.52
2022-08-28T00:43:56.768Z,1015.51
2022-08-28T00:44:58.039Z,1015.47
2022-08-28T00:45:56.428Z,1015.51
2022-08-28T00:47:01.030Z,1015.54
2022-08-28T00:47:57.080Z,1015.48
2022-08-28T00:48:57.392Z,1015.51
2022-08-28T00:49:57.700Z,1015.49
2022-08-28T00:51:00.392Z,1015.45
2022-08-28T00:51:59.781Z,1015.46
2022-08-28T00:52:59.491Z,1015.45
2022-08-28T00:54:00.666Z,1015.47
2022-08-28T00:55:01.050Z,1015.44
2022-08-28T00:56:00.223Z,1015.45
2022-08-28T00:57:02.692Z,1015.42
2022-08-28T00:57:59.976Z,1015.40
2022-08-28T00:59:00.280Z,1015.39
2022-08-28T01:00:02.470Z,1015.38
2022-08-28T01:01:01.618Z,1015.37
2022-08-28T01:02:02.008Z,1015.37
2022-08-28T01:03:01.427Z,1015.35
2022-08-28T01:04:01.610Z,1015.33
2022-08-28T01:05:03.774Z,1015.30
2022-08-28T01:06:03.952Z,1015.33
2022-08-28T01:07:05.322Z,1015.28
2022-08-28T01:08:04.355Z,1015.28
2022-08-28T01:09:05.035Z,1015.29
2022-08-28T01:10:05.212Z,1015.26
2022-08-28T01:11:05.413Z,1015.25
2022-08-28T01:12:06.882Z,1015.26
2022-08-28T01:13:04.165Z,1015.27
2022-08-28T01:14:04.470Z,1015.28
2022-08-28T01:15:06.665Z,1015.29
2022-08-28T01:16:06.999Z,1015.30
2022-08-28T01:17:06.142Z,1015.28
2022-08-28T01:18:08.587Z,1015.27
2022-08-28T01:19:05.953Z,1015.26
2022-08-28T01:20:08.140Z,1015.28
2022-08-28T01:21:08.331Z,1015.27
2022-08-28T01:22:09.764Z,1015.25
2022-08-28T01:23:08.715Z,1015.28
2022-08-28T01:24:09.403Z,1015.32
2022-08-28T01:25:09.595Z,1015.30
2022-08-28T01:26:10.732Z,1015.32
2022-08-28T01:27:10.273Z,1015.31
2022-08-28T01:28:10.529Z,1015.33
2022-08-28T01:29:10.626Z,1015.34
2022-08-28T01:30:10.805Z,1015.38
2022-08-28T01:31:09.650Z,1015.38
2022-08-28T01:32:11.749Z,1015.36
2022-08-28T01:33:12.093Z,1015.40
2022-08-28T01:34:10.440Z,1015.40
2022-08-28T01:35:12.596Z,1015.40
2022-08-28T01:36:10.982Z,1015.44
2022-08-28T01:37:11.294Z,1015.40
2022-08-28T01:38:14.229Z,1015.40
2022-08-28T01:39:12.887Z,1015.41
2022-08-28T01:40:14.148Z,1015.42
2022-08-28T01:41:12.437Z,1015.39
2022-08-28T01:42:14.620Z,1015.36
2022-08-28T01:43:14.801Z,1015.38
2022-08-28T01:44:13.305Z,1015.38
2022-08-28T01:45:15.493Z,1015.35
2022-08-28T01:46:13.937Z,1015.38
2022-08-28T01:47:16.075Z,1015.39
2022-08-28T01:48:14.555Z,1015.42
2022-08-28T01:49:16.642Z,1015.42
2022-08-28T01:50:16.836Z,1015.40
2022-08-28T01:51:15.346Z,1015.41
2022-08-28T01:52:15.654Z,1015.38
2022-08-28T01:53:16.080Z,1015.39
2022-08-28T01:54:18.160Z,1015.40
2022-08-28T01:55:21.555Z,1015.38
2022-08-28T01:56:16.867Z,1015.42
2022-08-28T01:57:19.050Z,1015.38
2022-08-28T01:58:17.455Z,1015.39
2022-08-28T01:59:19.645Z,1015.36
2022-08-28T02:00:19.800Z,1015.36
2022-08-28T02:01:18.404Z,1015.33
2022-08-28T02:02:20.468Z,1015.35
2022-08-28T02:03:18.858Z,1015.34
2022-08-28T02:04:21.080Z,1015.35
2022-08-28T02:05:20.459Z,1015.31
2022-08-28T02:06:19.704Z,1015.35
2022-08-28T02:07:23.851Z,1015.36
2022-08-28T02:08:20.272Z,1015.34
2022-08-28T02:09:22.457Z,1015.33
2022-08-28T02:10:22.637Z,1015.37
2022-08-28T02:11:21.071Z,1015.36
2022-08-28T02:12:23.267Z,1015.33
2022-08-28T02:13:21.658Z,1015.36
2022-08-28T02:14:23.839Z,1015.36
2022-08-28T02:15:23.544Z,1015.33
2022-08-28T02:16:23.525Z,1015.33
2022-08-28T02:17:24.714Z,1015.28
2022-08-28T02:18:23.093Z,1015.34
2022-08-28T02:19:23.411Z,1015.32
2022-08-28T02:20:25.672Z,1015.28
2022-08-28T02:21:25.094Z,1015.26
2022-08-28T02:22:24.329Z,1015.28
2022-08-28T02:23:24.644Z,1015.30
2022-08-28T02:24:28.276Z,1015.33
2022-08-28T02:25:27.012Z,1015.34
2022-08-28T02:26:27.005Z,1015.34
2022-08-28T02:27:26.560Z,1015.35
2022-08-28T02:28:28.012Z,1015.37
2022-08-28T02:29:28.133Z,1015.36
2022-08-28T02:30:27.554Z,1015.38
2022-08-28T02:31:28.473Z,1015.35
2022-08-28T02:32:28.130Z,1015.35
2022-08-28T02:33:29.494Z,1015.39
2022-08-28T02:34:27.750Z,1015.33
2022-08-28T02:35:28.063Z,1015.34
2022-08-28T02:36:29.280Z,1015.37
2022-08-28T02:37:30.639Z,1015.33
2022-08-28T02:38:32.273Z,1015.34
2022-08-28T02:39:31.005Z,1015.36
2022-08-28T02:40:30.497Z,1015.33
2022-08-28T02:41:30.848Z,1015.41
2022-08-28T02:42:31.009Z,1015.38
2022-08-28T02:43:31.424Z,1015.41
2022-08-28T02:44:32.694Z,1015.40
2022-08-28T02:45:31.999Z,1015.39
2022-08-28T02:46:32.906Z,1015.40
2022-08-28T02:47:32.588Z,1015.39
2022-08-28T02:48:33.827Z,1015.37
2022-08-28T02:49:36.093Z,1015.37
2022-08-28T02:50:33.313Z,1015.38
2022-08-28T02:51:34.753Z,1015.32
2022-08-28T02:52:33.137Z,1015.30
2022-08-28T02:53:33.457Z,1015.26
2022-08-28T02:54:34.635Z,1015.28
2022-08-28T02:55:35.808Z,1015.24
2022-08-28T02:56:36.320Z,1015.21
2022-08-28T02:57:36.237Z,1015.23
2022-08-28T02:58:36.428Z,1015.22
2022-08-28T02:59:37.115Z,1015.19
2022-08-28T03:00:37.290Z,1015.18
2022-08-28T03:01:38.727Z,1015.21
2022-08-28T03:02:37.759Z,1015.20
2022-08-28T03:03:37.848Z,1015.19
2022-08-28T03:04:38.541Z,1015.18
2022-08-28T03:05:38.738Z,1015.20
2022-08-28T03:06:40.231Z,1015.20
2022-08-28T03:07:37.515Z,1015.20
2022-08-28T03:08:37.811Z,1015.22
2022-08-28T03:09:39.996Z,1015.19
2022-08-28T03:10:38.402Z,1015.19
2022-08-28T03:11:42.552Z,1015.17
2022-08-28T03:12:38.968Z,1015.16
2022-08-28T03:13:39.269Z,1015.18
2022-08-28T03:14:41.457Z,1015.21
2022-08-28T03:15:39.848Z,1015.23
2022-08-28T03:16:42.127Z,1015.23
2022-08-28T03:17:42.242Z,1015.20
2022-08-28T03:18:42.430Z,1015.23
2022-08-28T03:19:42.620Z,1015.21
2022-08-28T03:20:43.311Z,1015.22
2022-08-28T03:21:44.674Z,1015.22
2022-08-28T03:22:43.712Z,1015.23
2022-08-28T03:23:42.221Z,1015.20
2022-08-28T03:24:44.407Z,1015.22
2022-08-28T03:25:44.589Z,1015.26
2022-08-28T03:26:45.994Z,1015.18
2022-08-28T03:27:45.022Z,1015.19
2022-08-28T03:28:45.206Z,1015.22
2022-08-28T03:29:43.959Z,1015.19
2022-08-28T03:30:46.171Z,1015.22
2022-08-28T03:31:45.516Z,1015.19
2022-08-28T03:32:44.885Z,1015.19
2022-08-28T03:33:47.065Z,1015.23
2022-08-28T03:34:45.452Z,1015.27
2022-08-28T03:35:45.762Z,1015.24
2022-08-28T03:36:47.565Z,1015.23
2022-08-28T03:37:46.308Z,1015.22
2022-08-28T03:38:46.626Z,1015.23
2022-08-28T03:39:48.795Z,1015.28
2022-08-28T03:40:47.184Z,1015.26
2022-08-28T03:41:51.339Z,1015.29
2022-08-28T03:42:52.925Z,1015.27
2022-08-28T03:43:49.082Z,1015.29
2022-08-28T03:44:48.327Z,1015.30
2022-08-28T03:45:50.553Z,1015.32
2022-08-28T03:46:50.877Z,1015.27
2022-08-28T03:47:49.172Z,1015.31
2022-08-28T03:48:49.464Z,1015.32
2022-08-28T03:49:51.635Z,1015.28
2022-08-28T03:50:50.025Z,1015.31
2022-08-28T03:51:52.299Z,1015.28
2022-08-28T03:52:50.697Z,1015.26
2022-08-28T03:53:50.839Z,1015.28
2022-08-28T03:54:51.146Z,1015.23
2022-08-28T03:55:53.329Z,1015.21
2022-08-28T03:56:54.629Z,1015.19
2022-08-28T03:57:52.042Z,1015.19
2022-08-28T03:58:52.370Z,1015.17
2022-08-28T03:59:52.689Z,1015.15
2022-08-28T04:00:54.923Z,1015.15
2022-08-28T04:01:54.157Z,1015.12
2022-08-28T04:02:53.591Z,1015.15
2022-08-28T04:03:53.881Z,1015.15
2022-08-28T04:04:54.206Z,1015.18
2022-08-28T04:05:54.531Z,1015.17
2022-08-28T04:06:56.851Z,1015.17
2022-08-28T04:07:55.146Z,1015.14
2022-08-28T04:08:55.449Z,1015.16
2022-08-28T04:09:55.750Z,1015.11
2022-08-28T04:10:56.077Z,1015.14
2022-08-28T04:12:00.221Z,1015.15
2022-08-28T04:12:56.661Z,1015.11
2022-08-28T04:14:00.313Z,1015.13
2022-08-28T04:14:58.283Z,1015.11
2022-08-28T04:15:57.540Z,1015.11
2022-08-28T04:17:01.645Z,1015.13
2022-08-28T04:17:58.151Z,1015.14
2022-08-28T04:18:58.492Z,1015.13
2022-08-28T04:19:58.826Z,1015.15
2022-08-28T04:20:59.171Z,1015.12
2022-08-28T04:22:01.513Z,1015.12
2022-08-28T04:23:01.734Z,1015.10
2022-08-28T04:24:00.140Z,1015.16
2022-08-28T04:25:03.795Z,1015.14
2022-08-28T04:26:01.567Z,1015.13
2022-08-28T04:27:04.854Z,1015.15
2022-08-28T04:28:03.072Z,1015.15
2022-08-28T04:29:02.564Z,1015.14
2022-08-28T04:30:02.737Z,1015.13
2022-08-28T04:31:03.146Z,1015.13
2022-08-28T04:32:06.342Z,1015.16
2022-08-28T04:33:03.716Z,1015.13
2022-08-28T04:34:02.984Z,1015.11
2022-08-28T04:35:03.341Z,1015.11
2022-08-28T04:36:03.556Z,1015.09
2022-08-28T04:37:07.765Z,1015.08
2022-08-28T04:38:05.577Z,1015.08
2022-08-28T04:39:04.500Z,1015.10
2022-08-28T04:40:04.898Z,1015.09
2022-08-28T04:41:05.060Z,1015.12
2022-08-28T04:42:07.997Z,1015.13
2022-08-28T04:43:05.558Z,1015.17
2022-08-28T04:44:05.788Z,1015.22
2022-08-28T04:45:06.018Z,1015.19
2022-08-28T04:46:06.284Z,1015.21
2022-08-28T04:47:09.540Z,1015.20
2022-08-28T04:48:09.060Z,1015.16
2022-08-28T04:49:06.996Z,1015.20
2022-08-28T04:50:07.214Z,1015.21
2022-08-28T04:51:07.445Z,1015.24
2022-08-28T04:52:10.109Z,1015.18
2022-08-28T04:53:07.915Z,1015.23
2022-08-28T04:54:08.145Z,1015.19
2022-08-28T04:55:10.334Z,1015.20
2022-08-28T04:56:10.516Z,1015.20
2022-08-28T04:57:10.881Z,1015.23
2022-08-28T04:58:10.930Z,1015.25
2022-08-28T04:59:11.070Z,1015.27
2022-08-28T05:00:11.745Z,1015.24
2022-08-28T05:01:11.943Z,1015.29
2022-08-28T05:02:12.905Z,1015.25
2022-08-28T05:03:10.677Z,1015.30
2022-08-28T05:04:10.905Z,1015.28
2022-08-28T05:05:11.141Z,1015.30
2022-08-28T05:06:13.342Z,1015.29
2022-08-28T05:07:13.500Z,1015.25
2022-08-28T05:08:13.873Z,1015.25
2022-08-28T05:09:13.851Z,1015.29
2022-08-28T05:10:14.006Z,1015.24
2022-08-28T05:11:14.695Z,1015.25
2022-08-28T05:12:15.856Z,1015.28
2022-08-28T05:13:13.419Z,1015.25
2022-08-28T05:14:16.152Z,1015.25
2022-08-28T05:15:13.929Z,1015.25
2022-08-28T05:16:14.299Z,1015.28
2022-08-28T05:17:16.356Z,1015.23
2022-08-28T05:18:16.512Z,1015.26
2022-08-28T05:19:16.703Z,1015.20
2022-08-28T05:20:15.363Z,1015.28
2022-08-28T05:21:15.716Z,1015.26
2022-08-28T05:22:17.901Z,1015.29
2022-08-28T05:23:16.203Z,1015.35
2022-08-28T05:24:18.369Z,1015.24
2022-08-28T05:25:18.565Z,1015.28
2022-08-28T05:26:18.745Z,1015.23
2022-08-28T05:27:18.902Z,1015.28
2022-08-28T05:28:19.061Z,1015.31
2022-08-28T05:29:17.860Z,1015.30
2022-08-28T05:30:20.035Z,1015.32
2022-08-28T05:31:20.274Z,1015.30
2022-08-28T05:32:18.675Z,1015.27
2022-08-28T05:33:18.907Z,1015.29
2022-08-28T05:34:19.134Z,1015.34
2022-08-28T05:35:19.383Z,1015.31
2022-08-28T05:36:19.620Z,1015.24
2022-08-28T05:37:21.926Z,1015.26
2022-08-28T05:38:21.976Z,1015.25
2022-08-28T05:39:20.413Z,1015.30
2022-08-28T05:40:22.635Z,1015.28
2022-08-28T05:41:20.916Z,1015.28
2022-08-28T05:42:21.163Z,1015.27
2022-08-28T05:43:21.488Z,1015.20
2022-08-28T05:44:21.607Z,1015.25
2022-08-28T05:45:23.794Z,1015.23
2022-08-28T05:46:22.215Z,1015.20
2022-08-28T05:47:24.288Z,1015.16
2022-08-28T05:48:22.706Z,1015.27
2022-08-28T05:49:22.939Z,1015.20
2022-08-28T05:50:25.121Z,1015.19
2022-08-28T05:51:23.421Z,1015.25
2022-08-28T05:52:23.714Z,1015.21
2022-08-28T05:53:24.066Z,1015.24
2022-08-28T05:54:24.291Z,1015.28
2022-08-28T05:55:26.471Z,1015.30
2022-08-28T05:56:25.699Z,1015.25
2022-08-28T05:57:27.099Z,1015.24
2022-08-28T05:58:25.518Z,1015.22
2022-08-28T05:59:25.748Z,1015.20
2022-08-28T06:00:25.978Z,1015.23
2022-08-28T06:01:30.188Z,1015.23
2022-08-28T06:02:26.560Z,1015.28
2022-08-28T06:03:28.753Z,1015.26
2022-08-28T06:04:28.986Z,1015.32
2022-08-28T06:05:27.407Z,1015.31
2022-08-28T06:06:29.124Z,1015.30
2022-08-28T06:07:27.931Z,1015.23
2022-08-28T06:08:30.117Z,1015.26
2022-08-28T06:09:30.409Z,1015.26
2022-08-28T06:10:30.470Z,1015.29
2022-08-28T06:11:30.971Z,1015.29
2022-08-28T06:12:29.228Z,1015.26
2022-08-28T06:13:31.413Z,1015.29
2022-08-28T06:14:31.590Z,1015.33
2022-08-28T06:15:30.001Z,1015.32
2022-08-28T06:16:31.273Z,1015.28
2022-08-28T06:17:30.486Z,1015.33
2022-08-28T06:18:30.710Z,1015.32
2022-08-28T06:19:32.905Z,1015.31
2022-08-28T06:20:31.212Z,1015.34
2022-08-28T06:21:35.376Z,1015.36
2022-08-28T06:22:31.711Z,1015.38
2022-08-28T06:23:31.953Z,1015.37
2022-08-28T06:24:34.131Z,1015.32
2022-08-28T06:25:32.443Z,1015.33
2022-08-28T06:26:33.572Z,1015.36
2022-08-28T06:27:32.992Z,1015.35
2022-08-28T06:28:33.254Z,1015.37
2022-08-28T06:29:33.512Z,1015.40
2022-08-28T06:30:33.754Z,1015.41
2022-08-28T06:31:34.954Z,1015.44
2022-08-28T06:32:34.300Z,1015.50
2022-08-28T06:33:35.362Z,1015.47
2022-08-28T06:34:34.771Z,1015.44
2022-08-28T06:35:35.000Z,1015.45
2022-08-28T06:36:36.200Z,1015.48
2022-08-28T06:37:35.485Z,1015.44
2022-08-28T06:38:37.173Z,1015.52
2022-08-28T06:39:37.857Z,1015.47
2022-08-28T06:40:38.089Z,1015.46
2022-08-28T06:41:37.504Z,1015.35
2022-08-28T06:42:36.947Z,1015.40
2022-08-28T06:43:37.193Z,1015.41
2022-08-28T06:44:41.323Z,1015.39
2022-08-28T06:45:37.726Z,1015.47
2022-08-28T06:46:40.333Z,1015.44
2022-08-28T06:47:38.976Z,1015.45
2022-08-28T06:48:39.864Z,1015.44
2022-08-28T06:49:42.062Z,1015.40
2022-08-28T06:50:39.974Z,1015.38
2022-08-28T06:51:42.184Z,1015.44
2022-08-28T06:52:40.877Z,1015.29
2022-08-28T06:53:40.704Z,1015.43
2022-08-28T06:54:45.609Z,1015.37
2022-08-28T06:55:41.394Z,1015.39
2022-08-28T06:56:42.720Z,1015.33
2022-08-28T06:57:41.866Z,1015.28
2022-08-28T06:58:42.018Z,1015.25
2022-08-28T06:59:43.376Z,1015.33
2022-08-28T07:00:41.685Z,1015.41
2022-08-28T07:01:43.465Z,1015.43
2022-08-28T07:02:42.315Z,1015.41
2022-08-28T07:03:44.377Z,1015.41
2022-08-28T07:04:44.734Z,1015.39
2022-08-28T07:05:43.046Z,1015.41
2022-08-28T07:06:46.567Z,1015.45
2022-08-28T07:07:43.535Z,1015.49
2022-08-28T07:08:43.765Z,1015.48
2022-08-28T07:09:43.998Z,1015.50
2022-08-28T07:10:45.190Z,1015.47
2022-08-28T07:11:47.359Z,1015.57
2022-08-28T07:12:46.587Z,1015.49
2022-08-28T07:13:45.009Z,1015.61
2022-08-28T07:14:47.156Z,1015.54
2022-08-28T07:15:47.406Z,1015.64
2022-08-28T07:16:46.691Z,1015.44
2022-08-28T07:17:45.990Z,1015.62
2022-08-28T07:18:46.225Z,1015.61
2022-08-28T07:19:48.419Z,1015.58
2022-08-28T07:20:47.212Z,1015.50
2022-08-28T07:21:50.052Z,1015.54
2022-08-28T07:22:47.248Z,1015.51
2022-08-28T07:23:48.488Z,1015.47
2022-08-28T07:24:49.683Z,1015.45
2022-08-28T07:25:48.113Z,1015.52
2022-08-28T07:26:52.262Z,1015.47
2022-08-28T07:27:48.596Z,1015.60
2022-08-28T07:28:50.776Z,1015.57
2022-08-28T07:29:50.967Z,1015.59
2022-08-28T07:30:51.209Z,1015.71
2022-08-28T07:31:52.683Z,1015.65
2022-08-28T07:32:50.000Z,1015.56
2022-08-28T07:33:53.984Z,1015.55
2022-08-28T07:34:52.363Z,1015.61
2022-08-28T07:35:52.540Z,1015.62
2022-08-28T07:36:53.985Z,1015.59
2022-08-28T07:37:52.935Z,1015.68
2022-08-28T07:38:53.592Z,1015.66
2022-08-28T07:39:53.807Z,1015.72
2022-08-28T07:40:53.962Z,1015.78
2022-08-28T07:41:55.556Z,1015.77
2022-08-28T07:42:52.752Z,1015.72
2022-08-28T07:43:54.951Z,1015.74
2022-08-28T07:44:55.134Z,1015.71
2022-08-28T07:45:55.377Z,1015.67
2022-08-28T07:46:55.839Z,1015.57
2022-08-28T07:47:54.153Z,1015.63
2022-08-28T07:48:56.545Z,1015.56
2022-08-28T07:49:56.584Z,1015.56
2022-08-28T07:50:55.025Z,1015.56
2022-08-28T07:52:00.178Z,1015.54
2022-08-28T07:52:55.524Z,1015.66
2022-08-28T07:53:57.969Z,1015.66
2022-08-28T07:54:57.576Z,1015.67
2022-08-28T07:55:56.387Z,1015.68
2022-08-28T07:57:00.548Z,1015.83
2022-08-28T07:57:58.744Z,1015.82
2022-08-28T07:58:57.176Z,1015.78
2022-08-28T07:59:59.355Z,1015.70
2022-08-28T08:00:57.668Z,1015.61
2022-08-28T08:02:01.060Z,1015.62
2022-08-28T08:02:58.256Z,1015.73
2022-08-28T08:04:01.700Z,1015.66
2022-08-28T08:05:00.674Z,1015.65
2022-08-28T08:06:00.849Z,1015.67
2022-08-28T08:07:02.376Z,1015.68
2022-08-28T08:07:59.567Z,1015.75
2022-08-28T08:08:59.810Z,1015.74
2022-08-28T08:10:01.990Z,1015.76
2022-08-28T08:11:00.297Z,1015.79
2022-08-28T08:12:03.685Z,1015.77
2022-08-28T08:13:00.983Z,1015.89
2022-08-28T08:14:01.223Z,1015.77
2022-08-28T08:15:03.402Z,1015.94
2022-08-28T08:16:01.760Z,1015.73
2022-08-28T08:17:02.946Z,1015.77
2022-08-28T08:18:02.251Z,1015.78
2022-08-28T08:19:02.492Z,1015.77
2022-08-28T08:20:04.669Z,1015.88
2022-08-28T08:21:02.979Z,1015.83
2022-08-28T08:22:04.695Z,1015.97
2022-08-28T08:23:03.525Z,1015.85
2022-08-28T08:24:03.763Z,1015.92
2022-08-28T08:25:05.944Z,1015.89
2022-08-28T08:26:04.254Z,1015.89
2022-08-28T08:27:05.313Z,1015.89
2022-08-28T08:28:04.741Z,1015.79
2022-08-28T08:29:04.981Z,1015.89
2022-08-28T08:30:07.160Z,1015.90
2022-08-28T08:31:05.542Z,1016.02
2022-08-28T08:32:06.624Z,1015.89
2022-08-28T08:33:06.045Z,1015.94
2022-08-28T08:34:06.277Z,1015.89
2022-08-28T08:35:07.445Z,1015.99
2022-08-28T08:36:08.634Z,1015.96
2022-08-28T08:37:10.301Z,1015.92
2022-08-28T08:38:07.373Z,1016.00
2022-08-28T08:39:11.481Z,1015.99
2022-08-28T08:40:10.879Z,1016.00
2022-08-28T08:41:09.871Z,1016.12
2022-08-28T08:42:12.521Z,1016.10
2022-08-28T08:43:08.855Z,1016.08
2022-08-28T08:44:09.094Z,1016.13
2022-08-28T08:45:11.279Z,1016.14
2022-08-28T08:46:11.533Z,1016.12
2022-08-28T08:47:14.428Z,1016.24
2022-08-28T08:48:10.222Z,1015.99
2022-08-28T08:49:10.455Z,1016.08
2022-08-28T08:50:13.593Z,1015.94
2022-08-28T08:51:11.037Z,1016.20
2022-08-28T08:52:11.269Z,1016.16
2022-08-28T08:53:14.884Z,1016.09
2022-08-28T08:54:12.704Z,1016.13
2022-08-28T08:55:15.177Z,1016.14
2022-08-28T08:56:12.452Z,1016.14
2022-08-28T08:57:12.690Z,1016.12
2022-08-28T08:58:13.095Z,1016.02
2022-08-28T08:59:13.224Z,1015.93
2022-08-28T09:00:15.962Z,1015.95
2022-08-28T09:01:15.699Z,1015.90
2022-08-28T09:02:14.001Z,1015.97
2022-08-28T09:03:14.286Z,1016.00
2022-08-28T09:04:15.846Z,1015.99
2022-08-28T09:05:14.762Z,1015.98
2022-08-28T09:06:18.392Z,1016.06
2022-08-28T09:07:16.328Z,1016.13
2022-08-28T09:08:16.479Z,1016.09
2022-08-28T09:09:16.899Z,1015.99
2022-08-28T09:10:17.059Z,1015.95
2022-08-28T09:11:18.397Z,1015.94
2022-08-28T09:12:18.579Z,1015.89
2022-08-28T09:13:18.049Z,1015.92
2022-08-28T09:14:19.560Z,1016.12
2022-08-28T09:15:18.629Z,1016.08
2022-08-28T09:16:19.930Z,1016.20
2022-08-28T09:17:20.834Z,1016.13
2022-08-28T09:18:18.516Z,1016.19
2022-08-28T09:19:18.756Z,1016.05
2022-08-28T09:20:19.944Z,1016.15
2022-08-28T09:21:21.194Z,1015.99
2022-08-28T09:22:21.376Z,1015.92
2022-08-28T09:23:19.931Z,1016.10
2022-08-28T09:24:20.174Z,1016.30
2022-08-28T09:25:20.417Z,1016.03
2022-08-28T09:26:22.640Z,1016.07
2022-08-28T09:27:22.814Z,1016.02
2022-08-28T09:28:21.242Z,1016.00
2022-08-28T09:29:23.431Z,1016.02
2022-08-28T09:30:22.618Z,1016.13
2022-08-28T09:31:24.020Z,1015.95
2022-08-28T09:32:23.993Z,1016.02
2022-08-28T09:33:24.177Z,1016.07
2022-08-28T09:34:22.863Z,1016.09
2022-08-28T09:35:25.034Z,1016.16
2022-08-28T09:36:26.348Z,1016.27
2022-08-28T09:37:25.422Z,1016.25
2022-08-28T09:38:27.942Z,1016.25
2022-08-28T09:39:25.797Z,1016.26
2022-08-28T09:40:26.547Z,1016.02
2022-08-28T09:41:28.602Z,1016.05
2022-08-28T09:42:26.828Z,1016.09
2022-08-28T09:43:27.013Z,1016.10
2022-08-28T09:44:27.704Z,1016.12
2022-08-28T09:45:27.896Z,1016.17
2022-08-28T09:46:29.313Z,1016.08
2022-08-28T09:47:28.272Z,1016.06
2022-08-28T09:48:28.965Z,1016.13
2022-08-28T09:49:29.147Z,1016.17
2022-08-28T09:50:29.327Z,1016.19
2022-08-28T09:51:30.791Z,1016.24
2022-08-28T09:52:28.110Z,1016.12
2022-08-28T09:53:30.303Z,1016.17
2022-08-28T09:54:30.470Z,1016.12
2022-08-28T09:55:30.673Z,1016.14
2022-08-28T09:56:32.103Z,1016.13
2022-08-28T09:57:29.538Z,1016.13
2022-08-28T09:58:33.662Z,1016.18
2022-08-28T09:59:31.898Z,1016.12
2022-08-28T10:00:32.078Z,1016.17
2022-08-28T10:01:34.763Z,1016.18
2022-08-28T10:02:31.075Z,1016.39
2022-08-28T10:03:33.250Z,1016.21
2022-08-28T10:04:31.678Z,1016.13
2022-08-28T10:05:33.754Z,1016.14
2022-08-28T10:06:35.896Z,1016.18
2022-08-28T10:07:34.180Z,1016.16
2022-08-28T10:08:32.711Z,1016.21
2022-08-28T10:09:32.949Z,1016.16
2022-08-28T10:10:33.185Z,1016.13
2022-08-28T10:11:37.336Z,1016.16
2022-08-28T10:12:33.664Z,1016.20
2022-08-28T10:13:35.846Z,1016.17
2022-08-28T10:14:34.152Z,1016.31
2022-08-28T10:15:34.468Z,1016.27
2022-08-28T10:16:38.548Z,1016.27
2022-08-28T10:17:35.022Z,1016.30
2022-08-28T10:18:37.196Z,1016.22
2022-08-28T10:19:35.505Z,1016.26
2022-08-28T10:20:35.741Z,1016.31
2022-08-28T10:21:39.939Z,1016.40
2022-08-28T10:22:38.165Z,1016.28
2022-08-28T10:23:36.596Z,1016.44
2022-08-28T10:24:38.773Z,1016.16
2022-08-28T10:25:37.128Z,1016.15
2022-08-28T10:26:39.190Z,1016.16
2022-08-28T10:27:39.645Z,1016.08
2022-08-28T10:28:37.911Z,1016.14
2022-08-28T10:29:40.090Z,1016.14
2022-08-28T10:30:38.472Z,1016.23
2022-08-28T10:31:38.899Z,1016.34
2022-08-28T10:32:39.044Z,1016.35
2022-08-28T10:33:39.252Z,1016.20
2022-08-28T10:34:41.436Z,1016.29
2022-08-28T10:35:39.752Z,1016.20
2022-08-28T10:36:41.965Z,1016.21
2022-08-28T10:37:42.245Z,1016.21
2022-08-28T10:38:40.549Z,1016.23
2022-08-28T10:39:42.736Z,1016.29
2022-08-28T10:40:41.109Z,1016.33
2022-08-28T10:41:45.207Z,1016.27
2022-08-28T10:42:41.543Z,1016.30
2022-08-28T10:43:43.725Z,1016.29
2022-08-28T10:44:42.016Z,1016.46
2022-08-28T10:45:44.223Z,1016.40
2022-08-28T10:46:44.587Z,1016.55
2022-08-28T10:47:42.794Z,1016.23
2022-08-28T10:48:44.976Z,1016.24
2022-08-28T10:49:43.284Z,1016.16
2022-08-28T10:50:43.531Z,1016.29
2022-08-28T10:51:47.688Z,1016.13
2022-08-28T10:52:44.020Z,1016.13
2022-08-28T10:53:46.210Z,1016.20
2022-08-28T10:54:44.516Z,1016.19
2022-08-28T10:55:44.764Z,1016.16
2022-08-28T10:56:46.049Z,1016.14
2022-08-28T10:57:46.361Z,1016.19
2022-08-28T10:58:45.661Z,1016.14
2022-08-28T10:59:47.841Z,1016.23
2022-08-28T11:00:46.155Z,1016.16
2022-08-28T11:01:47.848Z,1016.10
2022-08-28T11:02:46.688Z,1016.42
2022-08-28T11:03:48.829Z,1016.23
2022-08-28T11:04:49.012Z,1016.42
2022-08-28T11:05:53.693Z,1016.50
2022-08-28T11:06:49.707Z,1016.32
2022-08-28T11:07:49.914Z,1016.51
2022-08-28T11:08:48.235Z,1016.53
2022-08-28T11:09:50.415Z,1016.56
2022-08-28T11:10:48.735Z,1016.65
2022-08-28T11:11:50.475Z,1016.36
2022-08-28T11:12:51.202Z,1016.18
2022-08-28T11:13:49.516Z,1016.22
2022-08-28T11:14:53.163Z,1016.22
2022-08-28T11:15:49.997Z,1016.29
2022-08-28T11:16:51.786Z,1016.38
2022-08-28T11:17:51.459Z,1016.19
2022-08-28T11:18:51.878Z,1016.49
2022-08-28T11:19:52.591Z,1016.24
2022-08-28T11:20:52.193Z,1016.30
2022-08-28T11:21:54.918Z,1016.28
2022-08-28T11:22:53.046Z,1016.35
2022-08-28T11:23:54.174Z,1016.50
2022-08-28T11:24:55.981Z,1016.57
2022-08-28T11:25:53.888Z,1016.57
2022-08-28T11:26:56.230Z,1016.59
2022-08-28T11:27:53.440Z,1016.61
2022-08-28T11:28:53.688Z,1016.62
2022-08-28T11:29:53.931Z,1016.29
2022-08-28T11:30:54.215Z,1016.36
2022-08-28T11:31:58.373Z,1016.33
2022-08-28T11:32:56.570Z,1016.27
2022-08-28T11:33:55.003Z,1016.36
2022-08-28T11:34:55.244Z,1016.62
2022-08-28T11:35:55.501Z,1016.43
2022-08-28T11:36:59.664Z,1016.58
2022-08-28T11:37:57.905Z,1016.58
2022-08-28T11:38:56.352Z,1016.72
2022-08-28T11:39:56.636Z,1016.38
2022-08-28T11:40:56.842Z,1016.75
2022-08-28T11:41:59.138Z,1016.64
2022-08-28T11:43:00.327Z,1016.47
2022-08-28T11:43:57.716Z,1016.40
2022-08-28T11:44:57.956Z,1016.39
2022-08-28T11:45:58.296Z,1016.45
2022-08-28T11:46:58.527Z,1016.46
2022-08-28T11:48:00.755Z,1016.55
2022-08-28T11:48:59.057Z,1016.52
2022-08-28T11:49:59.294Z,1016.55
2022-08-28T11:50:59.542Z,1016.66
2022-08-28T11:52:00.766Z,1016.53
2022-08-28T11:53:03.429Z,1016.53
2022-08-28T11:54:03.368Z,1016.53
2022-08-28T11:55:02.377Z,1016.58
2022-08-28T11:56:00.951Z,1016.57
2022-08-28T11:57:02.131Z,1016.52
2022-08-28T11:58:39.194Z,1016.46
2022-08-28T11:59:41.385Z,1016.52
2022-08-28T12:00:39.695Z,1016.56
2022-08-28T12:01:39.932Z,1016.50
2022-08-28T12:02:40.276Z,1016.50
2022-08-28T12:03:42.358Z,1016.53
2022-08-28T12:04:40.769Z,1016.56
2022-08-28T12:05:41.014Z,1016.49
2022-08-28T12:06:41.254Z,1016.86
2022-08-28T12:07:41.494Z,1016.49
2022-08-28T12:08:43.677Z,1016.52
2022-08-28T12:09:43.858Z,1016.49